createdAt,value
2023-07-04T00:01:05.552Z,100161.34
2023-07-04T00:03:46.983Z,100162.69
2023-07-04T00:06:15.462Z,100159.78
2023-07-04T00:08:42.048Z,100161.37
2023-07-04T00:11:09.527Z,100159.77
2023-07-04T00:13:37.997Z,100161.61
2023-07-04T00:16:09.779Z,100164.17
2023-07-04T00:18:39.220Z,100161.87
2023-07-04T00:21:12.497Z,100161.70
2023-07-04T00:23:39.219Z,100164.53
2023-07-04T00:26:07.923Z,100165.42
2023-07-04T00:28:38.927Z,100169.84
2023-07-04T00:31:07.569Z,100170.19
2023-07-04T00:33:34.689Z,100174.55
2023-07-04T00:36:04.992Z,100176.50
2023-07-04T00:38:36.374Z,100174.61
2023-07-04T00:41:21.406Z,100173.41
2023-07-04T00:44:02.467Z,100175.08
2023-07-04T00:46:40.373Z,100176.71
2023-07-04T00:49:15.455Z,100177.58
2023-07-04T00:51:43.169Z,100181.47
2023-07-04T00:54:10.055Z,100181.33
2023-07-04T00:56:36.693Z,100178.80
2023-07-04T00:59:03.283Z,100177.13
2023-07-04T01:01:32.343Z,100172.41
2023-07-04T01:03:59.153Z,100171.65
2023-07-04T01:06:41.368Z,100171.71
2023-07-04T01:09:09.626Z,100171.21
2023-07-04T01:11:44.875Z,100176.30
2023-07-04T01:14:28.800Z,100174.60
2023-07-04T01:16:55.901Z,100178.79
2023-07-04T01:19:33.043Z,100179.06
2023-07-04T01:22:34.916Z,100178.73
2023-07-04T01:25:20.929Z,100182.60
2023-07-04T01:27:50.054Z,100179.50
2023-07-04T01:30:19.411Z,100179.44
2023-07-04T01:32:52.606Z,100181.91
2023-07-04T01:35:23.448Z,100183.77
2023-07-04T01:37:50.521Z,100186.42
2023-07-04T01:40:17.887Z,100187.30
2023-07-04T01:42:44.790Z,100186.08
2023-07-04T01:45:12.445Z,100191.80
2023-07-04T01:47:39.851Z,100191.98
2023-07-04T01:50:09.157Z,100190.07
2023-07-04T01:52:35.935Z,100194.61
2023-07-04T01:55:03.145Z,100201.33
2023-07-04T01:57:29.795Z,100202.43
2023-07-04T01:59:56.690Z,100199.92
2023-07-04T02:02:23.684Z,100195.53
2023-07-04T02:04:50.421Z,100193.69
2023-07-04T02:07:17.002Z,100194.53
2023-07-04T02:09:44.389Z,100198.65
2023-07-04T02:12:11.149Z,100195.95
2023-07-04T02:14:37.903Z,100193.20
2023-07-04T02:17:04.864Z,100190.44
2023-07-04T02:19:31.646Z,100184.80
2023-07-04T02:21:58.439Z,100186.27
2023-07-04T02:24:25.061Z,100188.77
2023-07-04T02:26:53.590Z,100188.38
2023-07-04T02:29:20.314Z,100187.23
2023-07-04T02:31:47.001Z,100184.41
2023-07-04T02:34:13.681Z,100188.66
2023-07-04T02:36:40.625Z,100186.79
2023-07-04T02:39:07.345Z,100185.85
2023-07-04T02:41:33.938Z,100184.52
2023-07-04T02:44:00.976Z,100190.98
2023-07-04T02:46:28.125Z,100188.93
2023-07-04T02:48:57.554Z,100187.41
2023-07-04T02:51:24.294Z,100188.81
2023-07-04T02:53:51.109Z,100192.76
2023-07-04T02:56:17.802Z,100197.00
2023-07-04T02:58:44.586Z,100194.92
2023-07-04T03:01:11.363Z,100192.38
2023-07-04T03:03:38.370Z,100191.02
2023-07-04T03:06:06.146Z,100193.14
2023-07-04T03:08:33.326Z,100192.05
2023-07-04T03:11:00.392Z,100194.13
2023-07-04T03:13:28.386Z,100197.44
2023-07-04T03:15:55.641Z,100200.18
2023-07-04T03:18:23.564Z,100204.70
2023-07-04T03:20:50.928Z,100209.33
2023-07-04T03:23:17.956Z,100211.62
2023-07-04T03:25:44.709Z,100210.85
2023-07-04T03:28:12.360Z,100209.75
2023-07-04T03:30:39.124Z,100206.91
2023-07-04T03:33:10.441Z,100211.81
2023-07-04T03:35:53.339Z,100210.64
2023-07-04T03:38:25.142Z,100209.41
2023-07-04T03:40:52.134Z,100212.42
2023-07-04T03:43:19.502Z,100206.34
2023-07-04T03:45:47.118Z,100205.61
2023-07-04T03:48:14.093Z,100201.65
2023-07-04T03:50:40.992Z,100204.16
2023-07-04T03:53:08.411Z,100202.63
2023-07-04T03:55:36.538Z,100200.96
2023-07-04T03:58:03.532Z,100199.70
2023-07-04T04:00:31.806Z,100202.48
2023-07-04T04:03:01.739Z,100199.17
2023-07-04T04:05:34.024Z,100195.73
2023-07-04T04:08:01.037Z,100198.82
2023-07-04T04:10:28.183Z,100198.69
2023-07-04T04:12:54.726Z,100202.17
2023-07-04T04:15:21.478Z,100204.69
2023-07-04T04:17:48.688Z,100205.83
2023-07-04T04:20:15.335Z,100204.55
2023-07-04T04:22:45.754Z,100206.38
2023-07-04T04:25:14.264Z,100212.58
2023-07-04T04:27:41.422Z,100215.54
2023-07-04T04:30:10.537Z,100217.56
2023-07-04T04:32:38.153Z,100220.20
2023-07-04T04:35:06.909Z,100222.17
2023-07-04T04:37:34.807Z,100223.53
2023-07-04T04:40:01.732Z,100226.75
2023-07-04T04:42:28.458Z,100227.96
2023-07-04T04:44:55.258Z,100226.35
2023-07-04T04:47:25.728Z,100229.02
2023-07-04T04:49:52.982Z,100233.55
2023-07-04T04:52:22.393Z,100236.81
2023-07-04T04:54:49.480Z,100238.96
2023-07-04T04:57:16.648Z,100240.43
2023-07-04T04:59:43.467Z,100244.67
2023-07-04T05:02:09.972Z,100244.75
2023-07-04T05:04:36.802Z,100249.84
2023-07-04T05:07:04.018Z,100252.81
2023-07-04T05:09:32.086Z,100249.86
2023-07-04T05:12:00.279Z,100254.77
2023-07-04T05:14:30.051Z,100252.83
2023-07-04T05:16:56.908Z,100256.77
2023-07-04T05:19:23.603Z,100260.00
2023-07-04T05:21:50.286Z,100263.04
2023-07-04T05:24:16.888Z,100264.45
2023-07-04T05:26:44.185Z,100265.00
2023-07-04T05:29:11.557Z,100260.74
2023-07-04T05:31:38.475Z,100263.69
2023-07-04T05:34:05.678Z,100267.38
2023-07-04T05:36:33.966Z,100263.58
2023-07-04T05:39:03.485Z,100269.69
2023-07-04T05:41:33.736Z,100274.10
2023-07-04T05:44:04.315Z,100274.44
2023-07-04T05:46:35.892Z,100277.44
2023-07-04T05:49:04.248Z,100277.39
2023-07-04T05:51:31.190Z,100275.70
2023-07-04T05:53:58.253Z,100273.13
2023-07-04T05:56:27.093Z,100274.42
2023-07-04T05:58:56.340Z,100275.45
2023-07-04T06:01:27.671Z,100272.90
2023-07-04T06:03:55.568Z,100274.00
2023-07-04T06:06:26.630Z,100272.25
2023-07-04T06:08:55.723Z,100274.30
2023-07-04T06:11:24.856Z,100267.58
2023-07-04T06:13:51.578Z,100271.91
2023-07-04T06:16:18.419Z,100269.52
2023-07-04T06:18:45.051Z,100265.61
2023-07-04T06:21:20.360Z,100266.45
2023-07-04T06:23:57.807Z,100263.35
2023-07-04T06:26:28.262Z,100265.08
2023-07-04T06:28:56.019Z,100266.67
2023-07-04T06:31:22.705Z,100266.83
2023-07-04T06:33:49.245Z,100272.18
2023-07-04T06:36:16.692Z,100270.04
2023-07-04T06:38:43.921Z,100270.61
2023-07-04T06:41:20.939Z,100271.95
2023-07-04T06:43:48.324Z,100270.66
2023-07-04T06:46:18.727Z,100271.52
2023-07-04T06:48:50.079Z,100270.11
2023-07-04T06:51:18.366Z,100272.11
2023-07-04T06:53:45.662Z,100270.20
2023-07-04T06:56:24.435Z,100275.13
2023-07-04T06:58:55.564Z,100273.69
2023-07-04T07:01:27.600Z,100278.86
2023-07-04T07:03:55.011Z,100276.35
2023-07-04T07:06:22.471Z,100279.69
2023-07-04T07:08:49.141Z,100271.84
2023-07-04T07:11:18.246Z,100271.27
2023-07-04T07:13:44.906Z,100276.40
2023-07-04T07:16:23.643Z,100273.91
2023-07-04T07:18:52.360Z,100274.52
2023-07-04T07:21:21.168Z,100276.41
2023-07-04T07:23:53.214Z,100268.73
2023-07-04T07:26:23.748Z,100271.13
2023-07-04T07:28:50.516Z,100271.46
2023-07-04T07:31:32.166Z,100272.86
2023-07-04T07:34:00.158Z,100271.14
2023-07-04T07:36:32.522Z,100271.61
2023-07-04T07:39:02.888Z,100268.51
2023-07-04T07:41:33.249Z,100270.64
2023-07-04T07:44:00.318Z,100268.13
2023-07-04T07:46:27.159Z,100260.33
2023-07-04T07:48:53.990Z,100261.79
2023-07-04T07:51:20.540Z,100261.11
2023-07-04T07:53:49.516Z,100260.08
2023-07-04T07:56:19.174Z,100260.55
2023-07-04T07:58:46.561Z,100257.75
2023-07-04T08:01:24.182Z,100252.51
2023-07-04T08:03:51.338Z,100248.81
2023-07-04T08:06:36.274Z,100246.85
2023-07-04T08:09:05.073Z,100243.57
2023-07-04T08:11:32.402Z,100243.17
2023-07-04T08:13:59.494Z,100244.55
2023-07-04T08:16:29.076Z,100240.48
2023-07-04T08:18:57.211Z,100231.14
2023-07-04T08:21:24.611Z,100227.05
2023-07-04T08:23:51.380Z,100228.17
2023-07-04T08:26:23.861Z,100231.84
2023-07-04T08:28:55.515Z,100233.30
2023-07-04T08:31:24.554Z,100235.55
2023-07-04T08:33:51.832Z,100234.27
2023-07-04T08:36:19.018Z,100235.05
2023-07-04T08:38:49.520Z,100234.52
2023-07-04T08:41:45.345Z,100237.91
2023-07-04T08:44:25.072Z,100234.56
2023-07-04T08:46:55.645Z,100233.94
2023-07-04T08:49:53.419Z,100234.92
2023-07-04T08:52:51.860Z,100235.04
2023-07-04T08:55:18.737Z,100227.97
2023-07-04T08:57:54.428Z,100230.73
2023-07-04T09:00:23.790Z,100230.98
2023-07-04T09:03:22.585Z,100230.36
2023-07-04T09:06:11.486Z,100227.80
2023-07-04T09:09:17.213Z,100223.31
2023-07-04T09:11:44.203Z,100223.20
2023-07-04T09:14:13.744Z,100224.68
2023-07-04T09:16:43.936Z,100221.66
2023-07-04T09:19:12.656Z,100223.98
2023-07-04T09:21:40.153Z,100219.31
2023-07-04T09:24:06.925Z,100218.71
2023-07-04T09:26:45.843Z,100213.52
2023-07-04T09:29:16.463Z,100206.66
2023-07-04T09:31:47.351Z,100202.67
2023-07-04T09:34:19.871Z,100203.74
2023-07-04T09:36:48.220Z,100201.89
2023-07-04T09:39:14.837Z,100201.30
2023-07-04T09:41:55.621Z,100205.58
2023-07-04T09:44:37.469Z,100203.26
2023-07-04T09:47:06.076Z,100202.33
2023-07-04T09:49:37.268Z,100202.48
2023-07-04T09:52:24.870Z,100205.21
2023-07-04T09:55:17.248Z,100205.39
2023-07-04T09:57:47.099Z,100210.53
2023-07-04T10:00:19.973Z,100209.48
2023-07-04T10:02:49.334Z,100204.39
2023-07-04T10:05:32.304Z,100206.14
2023-07-04T10:08:13.084Z,100206.52
2023-07-04T10:10:50.781Z,100200.79
2023-07-04T10:13:26.529Z,100203.30
2023-07-04T10:15:53.369Z,100207.95
2023-07-04T10:18:26.652Z,100210.23
2023-07-04T10:20:55.937Z,100202.83
2023-07-04T10:23:23.612Z,100205.73
2023-07-04T10:25:51.296Z,100198.32
2023-07-04T10:28:21.091Z,100199.80
2023-07-04T10:30:51.904Z,100198.80
2023-07-04T10:33:37.182Z,100196.13
2023-07-04T10:36:06.912Z,100198.76
2023-07-04T10:38:39.725Z,100197.55
2023-07-04T10:41:31.925Z,100202.09
2023-07-04T10:44:06.962Z,100196.94
2023-07-04T10:46:42.849Z,100197.55
2023-07-04T10:49:15.723Z,100201.78
2023-07-04T10:51:45.409Z,100206.69
2023-07-04T10:54:14.035Z,100198.91
2023-07-04T10:56:49.518Z,100197.92
2023-07-04T10:59:28.786Z,100200.27
2023-07-04T11:02:19.596Z,100199.48
2023-07-04T11:04:47.551Z,100192.43
2023-07-04T11:07:24.681Z,100194.09
2023-07-04T11:09:57.901Z,100193.21
2023-07-04T11:12:28.574Z,100191.02
2023-07-04T11:15:09.540Z,100181.66
2023-07-04T11:17:39.029Z,100179.67
2023-07-04T11:20:29.176Z,100185.83
2023-07-04T11:23:04.746Z,100181.98
2023-07-04T11:26:05.200Z,100179.85
2023-07-04T11:28:34.916Z,100175.27
2023-07-04T11:31:12.655Z,100184.59
2023-07-04T11:33:41.525Z,100180.12
2023-07-04T11:36:23.452Z,100174.14
2023-07-04T11:38:53.306Z,100179.11
2023-07-04T11:41:34.764Z,100177.55
2023-07-04T11:44:24.311Z,100167.30
2023-07-04T11:47:06.404Z,100166.88
2023-07-04T11:49:34.729Z,100171.30
2023-07-04T11:52:18.216Z,100174.64
2023-07-04T11:54:46.044Z,100170.80
2023-07-04T11:57:16.768Z,100162.60
2023-07-04T11:59:44.892Z,100165.21
2023-07-04T12:02:16.150Z,100157.46
2023-07-04T12:04:48.764Z,100157.22
2023-07-04T12:07:38.777Z,100155.54
2023-07-04T12:10:20.036Z,100157.90
2023-07-04T12:12:56.722Z,100159.46
2023-07-04T12:15:31.738Z,100152.45
2023-07-04T12:18:14.701Z,100148.36
2023-07-04T12:20:41.611Z,100149.27
2023-07-04T12:23:10.840Z,100150.05
2023-07-04T12:25:42.038Z,100155.05
2023-07-04T12:28:13.643Z,100146.15
2023-07-04T12:33:29.800Z,100150.98
2023-07-04T12:36:03.428Z,100140.23
2023-07-04T12:38:30.461Z,100147.09
2023-07-04T12:41:01.000Z,100141.86
2023-07-04T12:51:28.268Z,100143.25
2023-07-04T12:54:06.065Z,100142.17
2023-07-04T12:57:07.652Z,100136.20
2023-07-04T12:59:48.579Z,100138.91
2023-07-04T13:02:24.170Z,100137.62
2023-07-04T13:04:56.756Z,100135.30
2023-07-04T13:07:24.865Z,100134.48
2023-07-04T13:09:55.538Z,100130.56
2023-07-04T13:12:29.588Z,100129.66
2023-07-04T13:15:07.379Z,100123.50
2023-07-04T13:17:34.189Z,100122.98
2023-07-04T13:20:17.070Z,100128.56
2023-07-04T13:24:40.823Z,100131.02
2023-07-04T13:32:34.257Z,100131.45
2023-07-04T13:33:35.196Z,100129.38
2023-07-04T13:36:15.389Z,100128.29
2023-07-04T13:41:14.654Z,100129.25
2023-07-04T13:46:11.686Z,100121.79
2023-07-04T13:48:38.619Z,100123.88
2023-07-04T13:51:30.777Z,100123.42
2023-07-04T13:54:16.619Z,100122.33
2023-07-04T13:57:08.965Z,100122.06
2023-07-04T13:59:44.094Z,100120.52
2023-07-04T14:08:09.893Z,100109.41
2023-07-04T14:10:39.531Z,100120.36
2023-07-04T14:13:07.833Z,100122.63
2023-07-04T14:20:34.080Z,100125.80
2023-07-04T14:23:00.877Z,100127.58
2023-07-04T14:25:27.422Z,100126.15
2023-07-04T14:27:54.066Z,100123.16
2023-07-04T14:30:20.899Z,100122.92
2023-07-04T14:32:47.713Z,100117.95
2023-07-04T14:35:14.360Z,100115.71
2023-07-04T14:37:41.118Z,100114.42
2023-07-04T14:42:30.084Z,100112.17
2023-07-04T14:42:58.354Z,100114.69
2023-07-04T14:45:28.332Z,100114.20
2023-07-04T14:47:59.176Z,100114.54
2023-07-04T14:50:26.241Z,100112.38
2023-07-04T14:52:53.115Z,100112.95
2023-07-04T14:55:21.005Z,100118.30
2023-07-04T14:57:48.205Z,100118.97
2023-07-04T15:00:17.377Z,100116.96
2023-07-04T15:02:45.453Z,100115.36
2023-07-04T15:05:13.119Z,100116.75
2023-07-04T15:07:39.893Z,100119.37
2023-07-04T15:10:07.434Z,100114.48
2023-07-04T15:12:34.105Z,100114.20
2023-07-04T15:15:00.856Z,100112.89
2023-07-04T15:17:27.778Z,100114.44
2023-07-04T15:19:54.551Z,100110.89
2023-07-04T15:22:21.235Z,100112.95
2023-07-04T15:24:47.848Z,100113.18
2023-07-04T15:27:14.579Z,100111.41
2023-07-04T15:29:41.115Z,100112.98
2023-07-04T15:32:07.868Z,100116.08
2023-07-04T15:34:34.625Z,100113.27
2023-07-04T15:37:10.618Z,100116.48
2023-07-04T15:39:37.964Z,100113.95
2023-07-04T15:42:05.705Z,100110.81
2023-07-04T15:44:32.542Z,100111.04
2023-07-04T15:46:59.699Z,100108.14
2023-07-04T15:49:26.505Z,100110.77
2023-07-04T15:51:56.472Z,100109.30
2023-07-04T15:54:25.294Z,100110.05
2023-07-04T15:56:52.721Z,100109.16
2023-07-04T15:59:20.031Z,100109.61
2023-07-04T16:01:46.723Z,100110.36
2023-07-04T16:04:13.840Z,100108.50
2023-07-04T16:06:41.553Z,100106.67
2023-07-04T16:09:08.732Z,100104.49
2023-07-04T16:11:37.392Z,100109.52
2023-07-04T16:14:05.345Z,100114.39
2023-07-04T16:16:32.656Z,100113.64
2023-07-04T16:18:59.388Z,100116.21
2023-07-04T16:21:26.367Z,100120.61
2023-07-04T16:23:52.892Z,100122.83
2023-07-04T16:26:19.657Z,100120.36
2023-07-04T16:28:46.227Z,100120.65
2023-07-04T16:31:13.075Z,100121.33
2023-07-04T16:33:40.503Z,100121.80
2023-07-04T16:36:07.415Z,100121.16
2023-07-04T16:38:34.595Z,100121.67
2023-07-04T16:41:06.897Z,100125.61
2023-07-04T16:43:35.776Z,100125.16
2023-07-04T16:46:02.506Z,100126.92
2023-07-04T16:48:29.952Z,100128.20
2023-07-04T16:50:58.167Z,100128.33
2023-07-04T16:53:26.785Z,100129.70
2023-07-04T16:55:56.712Z,100129.96
2023-07-04T16:58:24.606Z,100132.36
2023-07-04T17:00:51.527Z,100134.52
2023-07-04T17:03:18.570Z,100132.89
2023-07-04T17:05:45.496Z,100135.00
2023-07-04T17:08:14.280Z,100135.88
2023-07-04T17:10:49.493Z,100138.16
2023-07-04T17:13:36.059Z,100138.67
2023-07-04T17:16:03.498Z,100144.52
2023-07-04T17:18:30.238Z,100140.29
2023-07-04T17:20:56.880Z,100145.52
2023-07-04T17:23:23.572Z,100148.18
2023-07-04T17:25:51.914Z,100145.71
2023-07-04T17:28:19.264Z,100146.53
2023-07-04T17:30:46.633Z,100144.29
2023-07-04T17:33:13.193Z,100140.02
2023-07-04T17:35:54.983Z,100145.71
2023-07-04T17:38:22.308Z,100148.64
2023-07-04T17:40:48.871Z,100149.55
2023-07-04T17:43:15.512Z,100152.97
2023-07-04T17:45:42.318Z,100156.02
2023-07-04T17:48:08.953Z,100160.95
2023-07-04T17:50:35.749Z,100160.27
2023-07-04T17:53:02.399Z,100160.61
2023-07-04T17:55:28.993Z,100162.88
2023-07-04T17:57:55.746Z,100165.10
2023-07-04T18:00:22.530Z,100167.67
2023-07-04T18:02:55.989Z,100168.34
2023-07-04T18:05:22.797Z,100169.42
2023-07-04T18:07:49.411Z,100170.77
2023-07-04T18:10:16.485Z,100174.31
2023-07-04T18:12:43.805Z,100175.92
2023-07-04T18:15:10.682Z,100179.48
2023-07-04T18:17:37.393Z,100181.12
2023-07-04T18:20:04.756Z,100186.14
2023-07-04T18:22:31.430Z,100191.64
2023-07-04T18:24:59.334Z,100194.42
2023-07-04T18:27:26.072Z,100197.35
2023-07-04T18:29:54.852Z,100197.25
2023-07-04T18:32:22.729Z,100205.17
2023-07-04T18:34:54.601Z,100205.50
2023-07-04T18:37:23.123Z,100208.70
2023-07-04T18:39:50.494Z,100211.69
2023-07-04T18:42:17.078Z,100212.33
2023-07-04T18:44:43.848Z,100214.96
2023-07-04T18:47:10.717Z,100221.73
2023-07-04T18:49:37.590Z,100225.45
2023-07-04T18:52:04.709Z,100231.54
2023-07-04T18:54:31.755Z,100232.39
2023-07-04T18:56:58.623Z,100238.88
2023-07-04T18:59:25.333Z,100242.02
2023-07-04T19:01:54.685Z,100248.91
2023-07-04T19:04:21.354Z,100250.30
2023-07-04T19:06:48.799Z,100255.75
2023-07-04T19:09:16.146Z,100259.42
2023-07-04T19:11:45.209Z,100263.20
2023-07-04T19:14:17.844Z,100266.64
2023-07-04T19:16:50.950Z,100268.00
2023-07-04T19:19:24.707Z,100268.70
2023-07-04T19:21:56.404Z,100270.88
2023-07-04T19:24:24.492Z,100272.77
2023-07-04T19:26:51.773Z,100273.75
2023-07-04T19:29:19.106Z,100274.36
2023-07-04T19:31:53.563Z,100280.25
2023-07-04T19:34:22.747Z,100283.30
2023-07-04T19:36:51.321Z,100280.64
2023-07-04T19:39:18.141Z,100284.91
2023-07-04T19:41:44.877Z,100287.56
2023-07-04T19:44:11.827Z,100293.92
2023-07-04T19:46:38.681Z,100295.27
2023-07-04T19:49:05.901Z,100298.54
2023-07-04T19:51:32.666Z,100301.32
2023-07-04T19:54:01.484Z,100301.69
2023-07-04T19:56:30.786Z,100302.85
2023-07-04T19:58:57.675Z,100303.10
2023-07-04T20:01:27.875Z,100306.23
2023-07-04T20:03:55.121Z,100309.21
2023-07-04T20:06:22.609Z,100310.17
2023-07-04T20:08:51.552Z,100306.50
2023-07-04T20:11:19.858Z,100300.97
2023-07-04T20:13:47.170Z,100301.58
2023-07-04T20:16:20.623Z,100310.65
2023-07-04T20:18:47.480Z,100313.42
2023-07-04T20:21:16.428Z,100317.35
2023-07-04T20:23:43.199Z,100318.29
2023-07-04T20:26:13.127Z,100321.73
2023-07-04T20:28:41.851Z,100326.34
2023-07-04T20:31:09.624Z,100321.67
2023-07-04T20:33:39.265Z,100325.45
2023-07-04T20:36:06.767Z,100327.20
2023-07-04T20:38:34.329Z,100332.81
2023-07-04T20:41:08.555Z,100336.08
2023-07-04T20:43:38.072Z,100337.26
2023-07-04T20:46:05.244Z,100341.61
2023-07-04T20:48:32.465Z,100342.55
2023-07-04T20:51:08.113Z,100346.61
2023-07-04T20:53:38.997Z,100350.80
2023-07-04T20:56:06.627Z,100348.92
2023-07-04T20:58:34.499Z,100355.80
2023-07-04T21:01:04.421Z,100356.45
2023-07-04T21:03:35.504Z,100358.83
2023-07-04T21:06:04.407Z,100359.34
2023-07-04T21:08:31.897Z,100364.05
2023-07-04T21:11:03.060Z,100365.69
2023-07-04T21:13:35.326Z,100362.89
2023-07-04T21:16:20.975Z,100366.09
2023-07-04T21:18:47.653Z,100369.91
2023-07-04T21:21:14.813Z,100376.70
2023-07-04T21:23:41.754Z,100381.35
2023-07-04T21:26:11.808Z,100382.19
2023-07-04T21:28:38.763Z,100384.01
2023-07-04T21:31:07.313Z,100386.84
2023-07-04T21:33:35.200Z,100386.52
2023-07-04T21:36:02.878Z,100387.71
2023-07-04T21:38:29.634Z,100394.31
2023-07-04T21:40:57.914Z,100399.05
2023-07-04T21:43:24.754Z,100402.20
2023-07-04T21:45:56.335Z,100404.33
2023-07-04T21:48:23.810Z,100404.27
2023-07-04T21:50:54.479Z,100408.79
2023-07-04T21:53:21.302Z,100413.06
2023-07-04T21:55:49.684Z,100413.58
2023-07-04T21:58:17.213Z,100416.61
2023-07-04T22:00:45.846Z,100420.69
2023-07-04T22:03:16.339Z,100423.05
2023-07-04T22:05:44.194Z,100424.79
2023-07-04T22:08:13.077Z,100424.77
2023-07-04T22:10:43.073Z,100430.10
2023-07-04T22:13:11.367Z,100434.96
2023-07-04T22:15:39.392Z,100438.79
2023-07-04T22:18:06.550Z,100440.48
2023-07-04T22:20:33.283Z,100442.20
2023-07-04T22:23:00.071Z,100445.80
2023-07-04T22:25:27.813Z,100450.02
2023-07-04T22:27:54.404Z,100454.27
2023-07-04T22:30:21.045Z,100454.47
2023-07-04T22:32:47.742Z,100450.75
2023-07-04T22:35:14.549Z,100454.30
2023-07-04T22:37:41.031Z,100456.65
2023-07-04T22:40:08.313Z,100457.43
2023-07-04T22:42:35.046Z,100456.48
2023-07-04T22:45:01.677Z,100453.46
2023-07-04T22:47:28.355Z,100457.97
2023-07-04T22:49:55.109Z,100458.20
2023-07-04T22:52:31.653Z,100457.17
2023-07-04T22:54:58.258Z,100463.25
2023-07-04T22:57:26.681Z,100457.59
2023-07-04T22:59:53.359Z,100457.75
2023-07-04T23:02:20.019Z,100455.48
2023-07-04T23:04:46.795Z,100457.20
2023-07-04T23:07:14.097Z,100462.29
2023-07-04T23:09:40.678Z,100463.68
2023-07-04T23:12:07.688Z,100461.96
2023-07-04T23:14:34.194Z,100458.59
2023-07-04T23:17:00.794Z,100466.81
2023-07-04T23:19:27.613Z,100470.27
2023-07-04T23:21:54.301Z,100477.89
2023-07-04T23:24:21.063Z,100481.05
2023-07-04T23:26:47.766Z,100477.63
2023-07-04T23:29:14.714Z,100477.25
2023-07-04T23:31:41.462Z,100477.16
2023-07-04T23:34:08.336Z,100478.86
2023-07-04T23:36:34.926Z,100482.52
2023-07-04T23:39:01.597Z,100481.83
2023-07-04T23:41:28.125Z,100481.16
2023-07-04T23:43:55.063Z,100483.08
2023-07-04T23:46:21.966Z,100486.61
2023-07-04T23:48:48.860Z,100488.84
2023-07-04T23:51:15.905Z,100490.46
2023-07-04T23:53:42.546Z,100495.38
2023-07-04T23:56:09.273Z,100495.75
2023-07-04T23:58:36.748Z,100495.27
